MSC Luisa — H9XU — position and weather

sailwx.info

Track history (hours):
 
Tides and Currents Weather Stations Pressure Air Temp Water Temp Dewpoint Dewpoint Depression Visibility Wind Speed Wind Dir Waves Ship Positions

MSC Luisa

Last reported at 2015-May-23 05:20 UTC. Time now 2015-May-29 04:17 UTC.
Position N 02°04' E 102°09'.

; draft 13.5 m.

Type: Ship. MMSI: 355308000.

Date/timePositionNaut miles runAvg speedWind from/ knotsBaromVisibWave heightAir tempDewpointWater temp
2015-May-23 05:20N 02°04' E 102°09'1215.8
2015-May-23 04:33N 01°56' E 102°18'1615.5
2015-May-23 03:33N 01°49' E 102°32'1615.6
2015-May-23 02:33N 01°43' E 102°46'6215.0
2015-May-22 22:25N 01°13' E 103°41'6 4.5
2015-May-22 21:08N 01°16' E 103°46'0 0.0
2015-May-22 15:11N 01°16' E 103°46'0 0.0
2015-May-22 14:04N 01°16' E 103°46'0 0.0
2015-May-22 12:28N 01°16' E 103°46'0 0.0
2015-May-22 10:27N 01°16' E 103°46'0 0.0
2015-May-22 08:14N 01°16' E 103°46'0 0.0
2015-May-22 06:07N 01°16' E 103°46'0 0.0
2015-May-22 04:12N 01°16' E 103°46'0 0.0
2015-May-22 02:29N 01°16' E 103°46'0 0.0
2015-May-22 01:20N 01°16' E 103°46'0 0.0
2015-May-21 18:22N 01°16' E 103°46'3 3.1
2015-May-21 17:29N 01°14' E 103°47'6 6.6
2015-May-21 16:33N 01°14' E 103°54'8 8.5
2015-May-21 15:33N 01°16' E 104°02'11 8.9
2015-May-21 14:21N 01°17' E 104°12'  
2015-May-17 14:20N 22°06' E 114°24'1910.6
2015-May-17 12:33N 22°16' E 114°06'1311.0
2015-May-17 11:21N 22°23' E 113°54'5 6.6
2015-May-17 10:33N 22°28' E 113°52'0 0.0
2015-May-17 02:33N 22°28' E 113°53'0 0.0
2015-May-17 01:26N 22°28' E 113°53'0 0.0
2015-May-17 00:26N 22°28' E 113°53'0 0.1
2015-May-16 21:30N 22°28' E 113°53'0 0.1
2015-May-16 20:25N 22°28' E 113°53'11 8.4
2015-May-16 19:05N 22°21' E 114°02'5 9.3
2015-May-16 18:33N 22°18' E 114°06'12 9.3
2015-May-16 17:19N 22°09' E 114°14'911.2
2015-May-16 16:31N 22°09' E 114°24'1211.6
2015-May-16 15:30N 22°09' E 114°36'26116.2
2015-May-15 23:21N 22°45' E 119°16'1815.8
2015-May-15 22:14N 22°56' E 119°31'1115.8
2015-May-15 21:34N 23°03' E 119°40'5714.2
2015-May-15 17:31N 23°58' E 119°58'2317.2
2015-May-15 16:10N 24°20' E 120°04'1316.6
2015-May-15 15:22N 24°33' E 120°09'1316.5
2015-May-15 14:33N 24°45' E 120°14'1916.7
2015-May-15 13:23N 25°04' E 120°20'1315.8
2015-May-15 12:32N 25°17' E 120°25'1716.2
2015-May-15 11:30N 25°28' E 120°38'28012.8
2015-May-14 13:33N 29°40' E 122°59'1817.8
2015-May-14 12:33N 29°40' E 122°38'1413.9
2015-May-14 11:33N 29°43' E 122°23'1010.3
2015-May-14 10:33N 29°49' E 122°13'9 9.3
2015-May-14 09:33N 29°55' E 122°05'3 2.5
2015-May-14 08:30N 29°54' E 122°02'0 0.1
2015-May-14 07:29N 29°54' E 122°02'0 0.0
2015-May-14 06:23N 29°54' E 122°02'0 0.0
2015-May-14 05:28N 29°54' E 122°02'0 0.0
2015-May-14 04:28N 29°54' E 122°02'0 0.0
2015-May-14 03:28N 29°54' E 122°02'0 0.1
2015-May-14 02:27N 29°54' E 122°02'0 0.0
2015-May-14 01:33N 29°54' E 122°02'0 0.0
2015-May-14 00:32N 29°54' E 122°02'0 0.1
2015-May-13 23:32N 29°54' E 122°02'0 0.1
2015-May-13 22:31N 29°54' E 122°02'0 0.0
2015-May-13 21:31N 29°54' E 122°02'0 0.0
2015-May-13 20:33N 29°54' E 122°02'0 0.1
2015-May-13 19:33N 29°54' E 122°02'0 0.0
2015-May-13 18:32N 29°54' E 122°02'0 0.1
2015-May-13 17:32N 29°54' E 122°02'0 0.1
2015-May-13 16:33N 29°54' E 122°02'8 8.0
2015-May-13 15:33N 29°53' E 122°11'1110.9
2015-May-13 14:33N 29°45' E 122°20'1615.5
2015-May-13 13:33N 29°46' E 122°38'1413.8
2015-May-13 12:31N 29°45' E 122°54'4112.9
2015-May-13 09:21N 30°26' E 122°49'1718.4
2015-May-13 08:27N 30°31' E 122°31'1314.7
2015-May-13 07:33N 30°33' E 122°15'10 9.3
2015-May-13 06:30N 30°37' E 122°05'  
Track history (hours):
 
Tides and Currents Weather Stations Pressure Air Temp Water Temp Dewpoint Dewpoint Depression Visibility Wind Speed Wind Dir Waves Ship Positions

MSC Luisa

Last reported at 2015-May-23 05:20 UTC. Time now 2015-May-29 04:17 UTC.
Position N 02°04' E 102°09'.

; draft 13.5 m.

Type: Ship. MMSI: 355308000.

Date/timePositionNaut miles runAvg speedWind from/ knotsBaromVisibWave heightAir tempDewpointWater temp
2015-May-23 05:20N 02°04' E 102°09'1215.8
2015-May-23 04:33N 01°56' E 102°18'1615.5
2015-May-23 03:33N 01°49' E 102°32'1615.6
2015-May-23 02:33N 01°43' E 102°46'6215.0
2015-May-22 22:25N 01°13' E 103°41'6 4.5
2015-May-22 21:08N 01°16' E 103°46'0 0.0
2015-May-22 15:11N 01°16' E 103°46'0 0.0
2015-May-22 14:04N 01°16' E 103°46'0 0.0
2015-May-22 12:28N 01°16' E 103°46'0 0.0
2015-May-22 10:27N 01°16' E 103°46'0 0.0
2015-May-22 08:14N 01°16' E 103°46'0 0.0
2015-May-22 06:07N 01°16' E 103°46'0 0.0
2015-May-22 04:12N 01°16' E 103°46'0 0.0
2015-May-22 02:29N 01°16' E 103°46'0 0.0
2015-May-22 01:20N 01°16' E 103°46'0 0.0
2015-May-21 18:22N 01°16' E 103°46'3 3.1
2015-May-21 17:29N 01°14' E 103°47'6 6.6
2015-May-21 16:33N 01°14' E 103°54'8 8.5
2015-May-21 15:33N 01°16' E 104°02'11 8.9
2015-May-21 14:21N 01°17' E 104°12'  
2015-May-17 14:20N 22°06' E 114°24'1910.6
2015-May-17 12:33N 22°16' E 114°06'1311.0
2015-May-17 11:21N 22°23' E 113°54'5 6.6
2015-May-17 10:33N 22°28' E 113°52'0 0.0
2015-May-17 02:33N 22°28' E 113°53'0 0.0
2015-May-17 01:26N 22°28' E 113°53'0 0.0
2015-May-17 00:26N 22°28' E 113°53'0 0.1
2015-May-16 21:30N 22°28' E 113°53'0 0.1
2015-May-16 20:25N 22°28' E 113°53'11 8.4
2015-May-16 19:05N 22°21' E 114°02'5 9.3
2015-May-16 18:33N 22°18' E 114°06'12 9.3
2015-May-16 17:19N 22°09' E 114°14'911.2
2015-May-16 16:31N 22°09' E 114°24'1211.6
2015-May-16 15:30N 22°09' E 114°36'26116.2
2015-May-15 23:21N 22°45' E 119°16'1815.8
2015-May-15 22:14N 22°56' E 119°31'1115.8
2015-May-15 21:34N 23°03' E 119°40'5714.2
2015-May-15 17:31N 23°58' E 119°58'2317.2
2015-May-15 16:10N 24°20' E 120°04'1316.6
2015-May-15 15:22N 24°33' E 120°09'1316.5
2015-May-15 14:33N 24°45' E 120°14'1916.7
2015-May-15 13:23N 25°04' E 120°20'1315.8
2015-May-15 12:32N 25°17' E 120°25'1716.2
2015-May-15 11:30N 25°28' E 120°38'28012.8
2015-May-14 13:33N 29°40' E 122°59'1817.8
2015-May-14 12:33N 29°40' E 122°38'1413.9
2015-May-14 11:33N 29°43' E 122°23'1010.3
2015-May-14 10:33N 29°49' E 122°13'9 9.3
2015-May-14 09:33N 29°55' E 122°05'3 2.5
2015-May-14 08:30N 29°54' E 122°02'0 0.1
2015-May-14 07:29N 29°54' E 122°02'0 0.0
2015-May-14 06:23N 29°54' E 122°02'0 0.0
2015-May-14 05:28N 29°54' E 122°02'0 0.0
2015-May-14 04:28N 29°54' E 122°02'0 0.0
2015-May-14 03:28N 29°54' E 122°02'0 0.1
2015-May-14 02:27N 29°54' E 122°02'0 0.0
2015-May-14 01:33N 29°54' E 122°02'0 0.0
2015-May-14 00:32N 29°54' E 122°02'0 0.1
2015-May-13 23:32N 29°54' E 122°02'0 0.1
2015-May-13 22:31N 29°54' E 122°02'0 0.0
2015-May-13 21:31N 29°54' E 122°02'0 0.0
2015-May-13 20:33N 29°54' E 122°02'0 0.1
2015-May-13 19:33N 29°54' E 122°02'0 0.0
2015-May-13 18:32N 29°54' E 122°02'0 0.1
2015-May-13 17:32N 29°54' E 122°02'0 0.1
2015-May-13 16:33N 29°54' E 122°02'8 8.0
2015-May-13 15:33N 29°53' E 122°11'1110.9
2015-May-13 14:33N 29°45' E 122°20'1615.5
2015-May-13 13:33N 29°46' E 122°38'1413.8
2015-May-13 12:31N 29°45' E 122°54'4112.9
2015-May-13 09:21N 30°26' E 122°49'1718.4
2015-May-13 08:27N 30°31' E 122°31'1314.7
2015-May-13 07:33N 30°33' E 122°15'10 9.3
2015-May-13 06:30N 30°37' E 122°05'  

Dump ship's entire track history